createdAt,value
2022-09-20T00:01:33.559Z,2.25
2022-09-20T00:04:05.531Z,5.45
2022-09-20T00:06:34.471Z,4.75
2022-09-20T00:09:03.577Z,3.53
2022-09-20T00:11:34.828Z,4.10
2022-09-20T00:14:06.121Z,3.42
2022-09-20T00:16:38.079Z,2.65
2022-09-20T00:19:07.294Z,8.02
2022-09-20T00:21:37.744Z,2.05
2022-09-20T00:24:06.097Z,6.13
2022-09-20T00:26:33.904Z,1.92
2022-09-20T00:29:01.705Z,5.15
2022-09-20T00:31:29.513Z,3.38
2022-09-20T00:34:17.703Z,2.33
2022-09-20T00:36:45.517Z,4.80
2022-09-20T00:39:15.613Z,5.18
2022-09-20T00:41:44.011Z,6.00
2022-09-20T00:44:49.976Z,1.95
2022-09-20T00:47:28.784Z,2.28
2022-09-20T00:50:08.732Z,2.13
2022-09-20T00:52:37.017Z,2.35
2022-09-20T00:55:08.782Z,3.50
2022-09-20T00:57:38.705Z,2.67
2022-09-20T01:00:11.917Z,4.85
2022-09-20T01:02:46.254Z,3.50
2022-09-20T01:05:16.289Z,3.08
2022-09-20T01:07:47.046Z,3.38
2022-09-20T01:10:14.689Z,4.35
2022-09-20T01:12:44.374Z,3.58
2022-09-20T01:15:15.581Z,1.75
2022-09-20T01:17:48.530Z,5.35
2022-09-20T01:20:30.106Z,5.20
2022-09-20T01:23:31.637Z,7.80
2022-09-20T01:26:05.479Z,3.08
2022-09-20T01:28:33.939Z,1.92
2022-09-20T01:31:26.716Z,2.78
2022-09-20T01:34:21.755Z,2.38
2022-09-20T01:36:53.334Z,3.20
2022-09-20T01:39:42.667Z,4.90
2022-09-20T01:42:13.550Z,5.53
2022-09-20T01:45:23.995Z,3.08
2022-09-20T01:48:04.922Z,2.38
2022-09-20T01:51:02.112Z,2.40
2022-09-20T01:54:00.862Z,3.03
2022-09-20T01:56:59.457Z,3.00
2022-09-20T02:00:06.163Z,2.05
2022-09-20T02:02:54.011Z,1.35
2022-09-20T02:05:43.292Z,3.80
2022-09-20T02:08:28.243Z,3.55
2022-09-20T02:11:12.454Z,6.47
2022-09-20T02:13:40.150Z,4.45
2022-09-20T02:16:32.039Z,4.75
2022-09-20T02:19:32.673Z,4.65
2022-09-20T02:22:40.783Z,2.85
2022-09-20T02:26:11.111Z,2.63
2022-09-20T02:28:58.943Z,4.50
2022-09-20T02:32:16.946Z,7.88
2022-09-20T02:35:25.688Z,6.53
2022-09-20T02:38:06.530Z,2.25
2022-09-20T02:41:23.610Z,4.65
2022-09-20T02:44:15.184Z,5.88
2022-09-20T02:47:18.015Z,4.65
2022-09-20T02:50:09.708Z,3.95
2022-09-20T02:53:00.634Z,4.70
2022-09-20T02:56:12.446Z,2.92
2022-09-20T02:59:41.833Z,5.72
2022-09-20T03:02:56.905Z,7.80
2022-09-20T03:05:33.166Z,7.80
2022-09-20T03:08:15.731Z,3.65
2022-09-20T03:11:06.601Z,5.90
2022-09-20T03:14:23.124Z,5.60
2022-09-20T03:17:18.302Z,3.47
2022-09-20T03:20:35.773Z,3.72
2022-09-20T03:26:08.110Z,2.90
2022-09-20T03:29:04.253Z,4.65
2022-09-20T03:31:56.128Z,2.25
2022-09-20T03:34:42.217Z,5.18
2022-09-20T03:37:30.719Z,4.07
2022-09-20T03:40:29.695Z,4.57
2022-09-20T03:43:34.347Z,3.00
2022-09-20T03:46:14.345Z,2.20
2022-09-20T03:49:32.538Z,2.92
2022-09-20T03:52:41.464Z,2.25
2022-09-20T03:55:49.786Z,3.60
2022-09-20T03:59:09.035Z,4.18
2022-09-20T04:02:32.832Z,3.50
2022-09-20T04:05:10.583Z,3.20
2022-09-20T04:08:08.198Z,6.72
2022-09-20T04:11:12.924Z,1.92
2022-09-20T04:13:51.606Z,2.95
2022-09-20T04:17:31.570Z,5.57
2022-09-20T04:20:09.783Z,3.58
2022-09-20T04:22:38.562Z,4.15
2022-09-20T04:25:20.005Z,2.60
2022-09-20T04:27:52.787Z,2.35
2022-09-20T04:30:28.959Z,3.65
2022-09-20T04:33:13.819Z,9.80
2022-09-20T04:36:15.495Z,3.95
2022-09-20T04:38:43.642Z,4.50
2022-09-20T04:41:33.957Z,2.70
2022-09-20T04:44:38.919Z,3.95
2022-09-20T04:47:40.223Z,2.97
2022-09-20T04:51:18.439Z,3.75
2022-09-20T04:54:35.005Z,4.45
2022-09-20T04:57:32.909Z,4.30
2022-09-20T05:00:15.342Z,2.90
2022-09-20T05:03:11.196Z,2.72
2022-09-20T05:05:56.020Z,4.18
2022-09-20T05:09:04.027Z,3.33
2022-09-20T05:11:54.511Z,2.30
2022-09-20T05:15:05.270Z,2.75
2022-09-20T05:18:06.420Z,3.60
2022-09-20T05:20:49.545Z,2.88
2022-09-20T05:23:38.286Z,2.60
2022-09-20T05:26:13.143Z,2.95
2022-09-20T05:29:17.627Z,4.70
2022-09-20T05:31:55.012Z,3.75
2022-09-20T05:34:33.426Z,3.10
2022-09-20T05:37:17.357Z,5.10
2022-09-20T05:40:31.775Z,5.82
2022-09-20T05:43:26.406Z,4.55
2022-09-20T05:46:32.510Z,3.47
2022-09-20T05:49:14.633Z,3.60
2022-09-20T05:51:57.447Z,6.53
2022-09-20T05:55:04.577Z,4.53
2022-09-20T06:00:21.646Z,9.35
2022-09-20T06:03:36.877Z,2.65
2022-09-20T06:06:18.178Z,3.60
2022-09-20T06:09:13.564Z,5.28
2022-09-20T06:12:20.246Z,3.95
2022-09-20T06:15:17.135Z,8.68
2022-09-20T06:18:24.134Z,8.82
2022-09-20T06:20:55.124Z,8.52
2022-09-20T06:23:23.374Z,6.40
2022-09-20T06:26:06.728Z,6.03
2022-09-20T06:28:41.970Z,7.30
2022-09-20T06:31:11.390Z,4.80
2022-09-20T06:34:05.965Z,5.50
2022-09-20T06:37:05.839Z,4.93
2022-09-20T06:40:04.559Z,7.13
2022-09-20T06:42:32.717Z,5.70
2022-09-20T06:45:00.456Z,9.05
2022-09-20T06:47:28.247Z,6.70
2022-09-20T06:49:56.703Z,6.07
2022-09-20T06:52:24.551Z,6.35
2022-09-20T06:54:55.599Z,6.80
2022-09-20T06:57:37.842Z,6.40
2022-09-20T07:00:10.192Z,5.40
2022-09-20T07:02:38.012Z,7.18
2022-09-20T07:05:07.569Z,7.55
2022-09-20T07:07:35.185Z,6.63
2022-09-20T07:10:03.092Z,5.90
2022-09-20T07:12:35.022Z,6.05
2022-09-20T07:15:03.410Z,7.03
2022-09-20T07:17:31.010Z,8.63
2022-09-20T07:19:59.189Z,8.90
2022-09-20T07:22:27.929Z,10.60
2022-09-20T07:24:55.585Z,8.50
2022-09-20T07:27:26.385Z,8.55
2022-09-20T07:29:56.623Z,8.30
2022-09-20T07:32:24.301Z,6.13
2022-09-20T07:34:51.957Z,9.15
2022-09-20T07:37:19.988Z,6.80
2022-09-20T07:39:47.596Z,5.50
2022-09-20T07:42:15.313Z,6.03
2022-09-20T07:44:43.353Z,7.10
2022-09-20T07:47:11.394Z,4.85
2022-09-20T07:49:39.226Z,6.40
2022-09-20T07:52:07.795Z,5.47
2022-09-20T07:54:35.391Z,5.07
2022-09-20T07:57:05.646Z,6.03
2022-09-20T07:59:33.428Z,7.40
2022-09-20T08:02:01.181Z,6.50
2022-09-20T08:04:28.846Z,6.57
2022-09-20T08:06:57.624Z,6.38
2022-09-20T08:09:25.240Z,9.20
2022-09-20T08:11:53.197Z,8.55
2022-09-20T08:14:21.609Z,8.32
2022-09-20T08:16:50.440Z,7.63
2022-09-20T08:19:21.670Z,8.80
2022-09-20T08:21:52.626Z,5.85
2022-09-20T08:24:20.510Z,6.43
2022-09-20T08:26:48.665Z,6.35
2022-09-20T08:29:16.429Z,6.53
2022-09-20T08:31:44.482Z,9.30
2022-09-20T08:34:15.045Z,7.50
2022-09-20T08:36:51.871Z,7.53
2022-09-20T08:42:37.843Z,9.85
2022-09-20T08:45:23.438Z,11.38
2022-09-20T08:48:06.697Z,8.48
2022-09-20T08:50:34.686Z,7.57
2022-09-20T08:53:04.963Z,8.68
2022-09-20T08:55:37.510Z,10.27
2022-09-20T08:58:08.862Z,9.73
2022-09-20T09:00:39.273Z,9.60
2022-09-20T09:03:13.010Z,11.05
2022-09-20T09:05:58.222Z,6.13
2022-09-20T09:08:31.037Z,7.30
2022-09-20T09:11:19.191Z,6.55
2022-09-20T09:14:31.477Z,8.60
2022-09-20T09:17:00.905Z,5.53
2022-09-20T09:19:34.052Z,7.53
2022-09-20T09:22:05.539Z,7.63
2022-09-20T09:24:33.319Z,5.70
2022-09-20T09:27:20.117Z,5.43
2022-09-20T09:29:55.141Z,5.47
2022-09-20T09:32:32.848Z,7.55
2022-09-20T09:35:29.431Z,7.30
2022-09-20T09:40:31.775Z,5.50
2022-09-20T09:43:02.807Z,4.80
2022-09-20T09:45:38.847Z,3.72
2022-09-20T09:48:26.836Z,7.63
2022-09-20T09:51:15.409Z,6.22
2022-09-20T09:53:44.994Z,4.45
2022-09-20T09:56:59.573Z,4.30
2022-09-20T10:00:20.008Z,5.57
2022-09-20T10:03:11.722Z,10.75
2022-09-20T10:06:17.495Z,3.85
2022-09-20T10:09:00.438Z,4.45
2022-09-20T10:12:04.318Z,6.35
2022-09-20T10:14:56.398Z,3.28
2022-09-20T10:17:54.235Z,4.63
2022-09-20T10:20:46.886Z,4.70
2022-09-20T10:24:01.555Z,7.32
2022-09-20T10:27:07.029Z,3.30
2022-09-20T10:30:02.011Z,7.22
2022-09-20T10:32:49.987Z,4.10
2022-09-20T10:35:25.065Z,3.97
2022-09-20T10:38:26.339Z,6.80
2022-09-20T10:41:37.188Z,5.35
2022-09-20T10:44:19.782Z,5.40
2022-09-20T10:47:14.541Z,2.58
2022-09-20T10:50:09.868Z,5.15
2022-09-20T10:53:09.201Z,0.95
2022-09-20T10:56:08.392Z,1.38
2022-09-20T10:58:54.233Z,2.05
2022-09-20T11:02:13.348Z,2.90
2022-09-20T11:05:28.577Z,3.60
2022-09-20T11:08:29.149Z,1.83
2022-09-20T11:11:12.449Z,3.03
2022-09-20T11:13:54.447Z,2.47
2022-09-20T11:16:48.766Z,2.28
2022-09-20T11:19:34.750Z,2.22
2022-09-20T11:22:13.442Z,2.78
2022-09-20T11:25:06.339Z,3.15
2022-09-20T11:27:41.985Z,4.53
2022-09-20T11:30:22.883Z,2.95
2022-09-20T11:33:05.410Z,8.43
2022-09-20T11:35:55.352Z,1.55
2022-09-20T11:38:36.850Z,2.15
2022-09-20T11:41:25.862Z,2.97
2022-09-20T11:44:00.620Z,4.15
2022-09-20T11:46:38.806Z,2.97
2022-09-20T11:50:00.153Z,3.92
2022-09-20T11:53:08.388Z,1.83
2022-09-20T11:56:17.289Z,4.88
2022-09-20T11:59:01.051Z,4.18
2022-09-20T12:01:41.774Z,3.45
2022-09-20T12:04:38.985Z,6.43
2022-09-20T12:07:35.041Z,2.88
2022-09-20T12:10:22.067Z,3.50
2022-09-20T12:12:59.598Z,2.60
2022-09-20T12:15:41.898Z,3.28
2022-09-20T12:18:29.269Z,1.80
2022-09-20T12:21:18.452Z,4.32
2022-09-20T12:24:00.480Z,3.58
2022-09-20T12:26:28.073Z,5.53
2022-09-20T12:29:02.523Z,5.50
2022-09-20T12:31:32.150Z,4.85
2022-09-20T12:34:26.126Z,2.47
2022-09-20T12:36:53.844Z,1.65
2022-09-20T12:39:34.779Z,4.38
2022-09-20T12:42:28.345Z,3.28
2022-09-20T12:45:08.203Z,3.35
2022-09-20T12:47:38.207Z,5.78
2022-09-20T12:50:33.477Z,3.65
2022-09-20T12:53:12.620Z,1.50
2022-09-20T12:55:54.989Z,2.30
2022-09-20T12:58:28.569Z,2.00
2022-09-20T13:00:59.453Z,2.53
2022-09-20T13:03:45.512Z,3.47
2022-09-20T13:09:00.105Z,1.00
2022-09-20T13:11:52.630Z,7.63
2022-09-20T13:14:31.365Z,2.78
2022-09-20T13:17:13.857Z,7.21
2022-09-20T13:19:50.819Z,8.02
2022-09-20T13:22:26.026Z,2.13
2022-09-20T13:24:59.980Z,5.40
2022-09-20T13:27:34.661Z,1.35
2022-09-20T13:30:26.951Z,1.95
2022-09-20T13:32:55.338Z,4.78
2022-09-20T13:35:28.026Z,2.70
2022-09-20T13:38:02.078Z,2.35
2022-09-20T13:40:43.106Z,1.17
2022-09-20T13:43:49.375Z,6.25
2022-09-20T13:46:44.784Z,1.02
2022-09-20T13:49:20.777Z,3.35
2022-09-20T13:51:49.235Z,5.45
2022-09-20T13:54:32.731Z,5.70
2022-09-20T13:57:15.561Z,1.45
2022-09-20T13:59:46.782Z,8.68
2022-09-20T14:02:32.623Z,2.58
2022-09-20T14:05:07.439Z,3.75
2022-09-20T14:07:36.842Z,3.47
2022-09-20T14:10:05.225Z,1.90
2022-09-20T14:12:33.974Z,1.17
2022-09-20T14:15:08.649Z,7.30
2022-09-20T14:17:36.666Z,3.60
2022-09-20T14:20:05.964Z,2.13
2022-09-20T14:22:33.843Z,2.65
2022-09-20T14:25:25.388Z,1.80
2022-09-20T14:28:19.823Z,3.35
2022-09-20T14:30:48.542Z,2.28
2022-09-20T14:33:21.305Z,3.45
2022-09-20T14:35:52.864Z,2.47
2022-09-20T14:38:26.217Z,5.13
2022-09-20T14:40:54.412Z,2.15
2022-09-20T14:43:33.882Z,2.75
2022-09-20T14:46:18.294Z,0.60
2022-09-20T14:48:45.983Z,4.60
2022-09-20T14:51:17.962Z,1.75
2022-09-20T14:53:48.675Z,2.17
2022-09-20T14:56:27.067Z,4.65
2022-09-20T14:59:25.967Z,4.03
2022-09-20T15:02:10.306Z,4.28
2022-09-20T15:04:40.156Z,1.92
2022-09-20T15:07:11.818Z,6.00
2022-09-20T15:09:39.650Z,3.40
2022-09-20T15:12:14.502Z,2.13
2022-09-20T15:14:42.418Z,4.23
2022-09-20T15:17:21.875Z,1.65
2022-09-20T15:19:50.159Z,2.17
2022-09-20T15:22:17.981Z,0.75
2022-09-20T15:24:45.809Z,0.98
2022-09-20T15:27:13.485Z,2.33
2022-09-20T15:29:41.168Z,0.93
2022-09-20T15:32:12.263Z,3.47
2022-09-20T15:34:40.216Z,3.35
2022-09-20T15:37:08.007Z,4.53
2022-09-20T15:39:35.694Z,4.88
2022-09-20T15:42:04.043Z,3.65
2022-09-20T15:44:32.760Z,2.25
2022-09-20T15:47:00.468Z,3.85
2022-09-20T15:49:28.786Z,0.98
2022-09-20T15:51:57.136Z,2.63
2022-09-20T15:54:26.722Z,3.22
2022-09-20T15:56:54.346Z,4.25
2022-09-20T15:59:23.400Z,3.30
2022-09-20T16:01:51.738Z,1.73
2022-09-20T16:04:20.363Z,3.00
2022-09-20T16:06:50.169Z,1.00
2022-09-20T16:09:19.171Z,4.18
2022-09-20T16:11:48.279Z,1.45
2022-09-20T16:14:17.493Z,5.20
2022-09-20T16:16:45.181Z,1.98
2022-09-20T16:19:20.770Z,3.08
2022-09-20T16:21:58.565Z,3.67
2022-09-20T16:24:33.228Z,2.10
2022-09-20T16:27:03.628Z,1.95
2022-09-20T16:29:32.314Z,4.15
2022-09-20T16:32:03.618Z,3.33
2022-09-20T16:34:34.955Z,3.58
2022-09-20T16:37:08.876Z,3.55
2022-09-20T16:39:36.583Z,4.60
2022-09-20T16:42:07.567Z,5.68
2022-09-20T16:44:37.533Z,1.23
2022-09-20T16:47:10.653Z,3.72
2022-09-20T16:49:39.645Z,4.47
2022-09-20T16:52:11.206Z,3.47
2022-09-20T16:54:41.004Z,3.28
2022-09-20T16:57:09.800Z,3.38
2022-09-20T16:59:37.365Z,3.22
2022-09-20T17:02:05.009Z,4.80
2022-09-20T17:04:32.711Z,5.03
2022-09-20T17:07:00.632Z,3.85
2022-09-20T17:09:28.855Z,8.23
2022-09-20T17:11:56.483Z,4.10
2022-09-20T17:14:24.988Z,3.58
2022-09-20T17:16:52.652Z,3.38
2022-09-20T17:19:21.156Z,4.22
2022-09-20T17:21:51.443Z,2.70
2022-09-20T17:24:21.528Z,1.75
2022-09-20T17:26:50.842Z,2.55
2022-09-20T17:29:20.223Z,3.22
2022-09-20T17:31:55.698Z,4.18
2022-09-20T17:34:25.515Z,2.58
2022-09-20T17:36:54.987Z,3.35
2022-09-20T17:39:23.230Z,2.10
2022-09-20T17:42:06.988Z,3.20
2022-09-20T17:44:37.533Z,4.35
2022-09-20T17:47:06.321Z,4.78
2022-09-20T17:49:34.796Z,3.13
2022-09-20T17:52:02.376Z,2.60
2022-09-20T17:54:32.353Z,3.05
2022-09-20T17:57:00.213Z,5.40
2022-09-20T17:59:28.497Z,3.60
2022-09-20T18:01:56.095Z,5.03
2022-09-20T18:04:26.863Z,2.50
2022-09-20T18:06:55.615Z,8.60
2022-09-20T18:09:27.106Z,8.18
2022-09-20T18:11:55.907Z,2.05
2022-09-20T18:14:27.546Z,7.00
2022-09-20T18:17:00.824Z,3.15
2022-09-20T18:19:33.263Z,7.35
2022-09-20T18:22:02.608Z,5.55
2022-09-20T18:24:31.613Z,4.10
2022-09-20T18:27:00.768Z,7.50
2022-09-20T18:29:29.308Z,6.80
2022-09-20T18:31:57.950Z,8.57
2022-09-20T18:34:33.283Z,4.10
2022-09-20T18:37:03.689Z,4.60
2022-09-20T18:39:34.875Z,3.60
2022-09-20T18:42:03.863Z,3.03
2022-09-20T18:44:33.911Z,5.82
2022-09-20T18:47:03.874Z,6.13
2022-09-20T18:49:32.429Z,5.57
2022-09-20T18:52:00.236Z,6.65
2022-09-20T18:54:33.248Z,5.80
2022-09-20T18:57:01.423Z,5.03
2022-09-20T18:59:29.773Z,6.25
2022-09-20T19:02:52.089Z,4.85
2022-09-20T19:05:55.686Z,8.68
2022-09-20T19:08:35.035Z,5.85
2022-09-20T19:11:11.464Z,9.23
2022-09-20T19:14:00.703Z,6.50
2022-09-20T19:16:34.352Z,9.20
2022-09-20T19:20:03.080Z,5.13
2022-09-20T19:23:16.281Z,8.18
2022-09-20T19:25:47.524Z,12.63
2022-09-20T19:28:16.505Z,9.68
2022-09-20T19:30:45.567Z,12.40
2022-09-20T19:33:18.767Z,9.43
2022-09-20T19:35:51.471Z,9.65
2022-09-20T19:38:51.940Z,7.47
2022-09-20T19:41:50.994Z,5.55
2022-09-20T19:44:36.322Z,3.97
2022-09-20T19:47:48.440Z,4.83
2022-09-20T19:50:28.079Z,4.28
2022-09-20T19:52:56.427Z,2.58
2022-09-20T19:55:24.874Z,2.00
2022-09-20T19:57:53.441Z,3.90
2022-09-20T20:00:21.930Z,2.70
2022-09-20T20:02:50.438Z,5.60
2022-09-20T20:05:25.568Z,2.85
2022-09-20T20:08:21.142Z,1.52
2022-09-20T20:11:09.978Z,3.30
2022-09-20T20:14:04.230Z,5.15
2022-09-20T20:17:05.081Z,2.33
2022-09-20T20:19:48.332Z,5.03
2022-09-20T20:22:35.689Z,5.32
2022-09-20T20:25:04.303Z,3.83
2022-09-20T20:27:32.612Z,3.05
2022-09-20T20:30:00.349Z,1.90
2022-09-20T20:32:28.125Z,3.28
2022-09-20T20:34:55.679Z,4.47
2022-09-20T20:37:24.580Z,4.15
2022-09-20T20:39:52.205Z,3.65
2022-09-20T20:42:21.008Z,10.32
2022-09-20T20:44:48.633Z,10.32
2022-09-20T20:47:16.227Z,6.95
2022-09-20T20:49:43.962Z,3.60
2022-09-20T20:52:12.531Z,8.30
2022-09-20T20:54:40.208Z,5.28
2022-09-20T20:57:07.819Z,4.30
2022-09-20T20:59:35.386Z,6.70
2022-09-20T21:02:07.628Z,4.43
2022-09-20T21:04:36.989Z,7.90
2022-09-20T21:07:04.636Z,13.75
2022-09-20T21:09:32.218Z,22.98
2022-09-20T21:11:59.922Z,25.77
2022-09-20T21:14:27.506Z,18.98
2022-09-20T21:16:55.151Z,14.23
2022-09-20T21:19:23.927Z,15.68
2022-09-20T21:21:51.571Z,15.20
2022-09-20T21:24:19.302Z,11.35
2022-09-20T21:26:47.543Z,9.38
2022-09-20T21:29:16.662Z,14.43
2022-09-20T21:31:47.007Z,12.35
2022-09-20T21:34:16.399Z,9.88
2022-09-20T21:36:45.051Z,8.88
2022-09-20T21:39:13.155Z,9.57
2022-09-20T21:41:41.526Z,4.28
2022-09-20T21:44:12.551Z,4.95
2022-09-20T21:46:48.876Z,3.76
2022-09-20T21:49:16.700Z,4.13
2022-09-20T21:51:45.225Z,4.20
2022-09-20T21:54:13.122Z,4.50
2022-09-20T21:56:41.507Z,3.13
2022-09-20T21:59:09.702Z,3.88
2022-09-20T22:01:40.353Z,4.07
2022-09-20T22:04:10.923Z,5.43
2022-09-20T22:06:44.353Z,3.20
2022-09-20T22:09:15.854Z,3.55
2022-09-20T22:11:46.540Z,5.45
2022-09-20T22:14:17.461Z,7.68
2022-09-20T22:16:47.585Z,4.68
2022-09-20T22:19:17.234Z,7.63
2022-09-20T22:21:48.253Z,8.02
2022-09-20T22:24:17.557Z,4.88
2022-09-20T22:26:49.161Z,5.10
2022-09-20T22:29:17.885Z,11.05
2022-09-20T22:31:47.961Z,3.67
2022-09-20T22:34:23.813Z,7.25
2022-09-20T22:36:52.495Z,6.85
2022-09-20T22:39:20.340Z,5.55
2022-09-20T22:41:48.334Z,6.18
2022-09-20T22:44:16.462Z,6.25
2022-09-20T22:46:44.496Z,5.40
2022-09-20T22:49:12.845Z,4.18
2022-09-20T22:51:40.901Z,7.15
2022-09-20T22:54:11.593Z,7.80
2022-09-20T22:56:43.382Z,3.90
2022-09-20T22:59:14.209Z,1.85
2022-09-20T23:01:47.719Z,3.58
2022-09-20T23:04:19.275Z,6.43
2022-09-20T23:06:54.585Z,4.70
2022-09-20T23:09:26.617Z,7.10
2022-09-20T23:11:54.576Z,3.53
2022-09-20T23:14:23.262Z,5.43
2022-09-20T23:35:27.526Z,5.32
2022-09-20T23:37:56.408Z,5.68
2022-09-20T23:40:24.349Z,5.03
2022-09-20T23:42:52.188Z,4.65
2022-09-20T23:45:19.981Z,4.80
2022-09-20T23:47:48.331Z,5.90
2022-09-20T23:50:16.321Z,4.13
2022-09-20T23:52:44.127Z,4.57
2022-09-20T23:55:12.105Z,7.35
2022-09-20T23:57:40.115Z,7.28
